Archival Weather

Chicago O'Hare International

Chicago, Illinois (KORD)

Report from: Wednesday, February 1, 2023 12:51 PM CST
Current time: Wednesday, May 29, 2024 3:58 AM CDT

Current weather – Weather history – Daily summaries
Weather forecast

Temperature-3.9°C (25.0°F)
Wind chill-10.2°C (13.6°F)
Dew point-13.9°C (7.0°F)
Winds 11 kts (5.7 m/s, 12.7 mph) Southwest (220°)
Wind gusts 20 kts (10.3 m/s, 23 mph)
Visibility10 mi. (16.1 km)
Clouds Few clouds 25,000 ft. (7,620 m)
Altimeter30.29 in.Hg (1026 mB)
Relative humidity46 %
Density altitude-2,760 ft. (-841 m)
Sea-level pressure102.7 kPa (1027 mB, 30.33 in.Hg)
Remarks Automated weather observing station with precipitation discriminator
Flight conditions Visual Meteorological Conditions
Raw dataKORD 011851Z 22011G20KT 10SM FEW250 M04/M14 A3029 RMK AO2 SLP270 T10391139
An error has occurred. This application may no longer respond until reloaded. Reload 🗙